createdAt,value
2023-03-28T00:02:19.508Z,75.05
2023-03-28T00:05:24.150Z,74.93
2023-03-28T00:08:29.593Z,75.26
2023-03-28T00:11:32.912Z,74.95
2023-03-28T00:14:37.414Z,75.70
2023-03-28T00:17:41.728Z,75.79
2023-03-28T00:20:44.653Z,76.42
2023-03-28T00:23:51.431Z,75.53
2023-03-28T00:26:54.899Z,75.54
2023-03-28T00:29:57.547Z,74.98
2023-03-28T00:33:00.232Z,74.98
2023-03-28T00:36:03.194Z,74.98
2023-03-28T00:39:07.426Z,74.73
2023-03-28T00:42:14.626Z,74.33
2023-03-28T00:45:21.364Z,73.49
2023-03-28T00:48:24.877Z,73.80
2023-03-28T00:51:32.414Z,74.18
2023-03-28T00:54:39.661Z,74.18
2023-03-28T00:57:43.616Z,73.05
2023-03-28T01:00:47.380Z,73.72
2023-03-28T01:03:56.311Z,73.33
2023-03-28T01:06:59.234Z,73.24
2023-03-28T01:10:05.162Z,73.91
2023-03-28T01:13:08.785Z,74.04
2023-03-28T01:16:12.625Z,72.54
2023-03-28T01:19:28.896Z,73.84
2023-03-28T01:23:19.286Z,73.43
2023-03-28T01:26:37.391Z,73.44
2023-03-28T01:30:09.777Z,73.21
2023-03-28T01:33:33.802Z,72.64
2023-03-28T01:37:03.169Z,73.96
2023-03-28T01:40:21.232Z,73.69
2023-03-28T01:43:34.303Z,75.18
2023-03-28T01:46:41.340Z,75.00
2023-03-28T01:49:52.026Z,76.40
2023-03-28T01:53:04.205Z,76.75
2023-03-28T01:56:14.328Z,77.30
2023-03-28T01:59:22.660Z,77.99
2023-03-28T02:02:30.535Z,77.19
2023-03-28T02:05:35.887Z,76.96
2023-03-28T02:08:42.718Z,76.67
2023-03-28T02:11:47.105Z,77.09
2023-03-28T02:14:51.896Z,76.49
2023-03-28T02:17:59.559Z,76.88
2023-03-28T02:21:07.594Z,75.34
2023-03-28T02:24:12.912Z,75.84
2023-03-28T02:27:15.604Z,75.42
2023-03-28T02:30:18.826Z,74.79
2023-03-28T02:33:35.057Z,74.77
2023-03-28T02:36:47.676Z,73.80
2023-03-28T02:40:07.505Z,74.21
2023-03-28T02:43:24.338Z,74.49
2023-03-28T02:46:30.834Z,74.22
2023-03-28T02:49:50.406Z,74.42
2023-03-28T02:53:03.410Z,73.90
2023-03-28T02:56:15.074Z,73.27
2023-03-28T02:59:24.740Z,74.23
2023-03-28T03:02:29.055Z,73.81
2023-03-28T03:05:31.749Z,73.64
2023-03-28T03:08:34.387Z,74.10
2023-03-28T03:11:38.363Z,73.60
2023-03-28T03:14:41.961Z,74.21
2023-03-28T03:17:45.174Z,74.74
2023-03-28T03:20:47.818Z,74.49
2023-03-28T03:23:50.771Z,74.63
2023-03-28T03:26:54.909Z,74.96
2023-03-28T03:29:57.525Z,74.87
2023-03-28T03:33:00.509Z,75.32
2023-03-28T03:36:04.058Z,75.04
2023-03-28T03:39:06.805Z,75.48
2023-03-28T03:42:10.984Z,74.95
2023-03-28T03:45:13.747Z,74.55
2023-03-28T03:48:16.342Z,73.80
2023-03-28T03:51:19.165Z,74.10
2023-03-28T03:54:21.813Z,73.49
2023-03-28T03:57:25.976Z,73.77
2023-03-28T04:00:28.629Z,73.36
2023-03-28T04:03:32.068Z,73.10
2023-03-28T04:06:34.980Z,73.32
2023-03-28T04:09:37.562Z,72.76
2023-03-28T04:12:41.551Z,72.96
2023-03-28T04:15:44.194Z,72.71
2023-03-28T04:18:50.799Z,73.08
2023-03-28T04:21:56.976Z,73.78
2023-03-28T04:25:01.591Z,73.99
2023-03-28T04:28:05.955Z,74.88
2023-03-28T04:31:12.016Z,75.10
2023-03-28T04:34:14.704Z,75.02
2023-03-28T04:37:18.408Z,75.57
2023-03-28T04:40:21.683Z,76.42
2023-03-28T04:43:26.430Z,75.98
2023-03-28T04:46:29.599Z,75.21
2023-03-28T04:49:32.251Z,75.22
2023-03-28T04:52:35.152Z,74.92
2023-03-28T04:55:37.801Z,75.62
2023-03-28T04:58:42.086Z,75.11
2023-03-28T05:01:49.546Z,75.07
2023-03-28T05:04:53.389Z,74.68
2023-03-28T05:07:56.062Z,74.90
2023-03-28T05:10:58.956Z,74.11
2023-03-28T05:14:02.995Z,73.95
2023-03-28T05:17:05.609Z,73.31
2023-03-28T05:20:11.067Z,73.32
2023-03-28T05:23:13.711Z,74.40
2023-03-28T05:26:16.522Z,74.79
2023-03-28T05:29:20.441Z,75.14
2023-03-28T05:32:23.073Z,74.63
2023-03-28T05:35:25.718Z,73.85
2023-03-28T05:38:29.406Z,74.26
2023-03-28T05:41:32.078Z,74.46
2023-03-28T05:44:36.019Z,74.94
2023-03-28T05:47:38.843Z,75.33
2023-03-28T05:50:41.560Z,75.72
2023-03-28T05:53:44.299Z,76.20
2023-03-28T05:56:46.959Z,76.96
2023-03-28T05:59:51.532Z,77.01
2023-03-28T06:02:54.951Z,77.36
2023-03-28T06:05:57.957Z,77.66
2023-03-28T06:09:00.872Z,77.86
2023-03-28T06:12:06.248Z,77.62
2023-03-28T06:15:12.043Z,77.73
2023-03-28T06:18:14.760Z,77.25
2023-03-28T06:21:17.487Z,77.25
2023-03-28T06:24:20.569Z,77.32
2023-03-28T06:27:23.312Z,77.14
2023-03-28T06:30:27.380Z,75.13
2023-03-28T06:33:30.004Z,74.76
2023-03-28T06:36:32.672Z,73.64
2023-03-28T06:39:35.432Z,72.87
2023-03-28T06:42:38.087Z,72.81
2023-03-28T06:45:42.925Z,72.20
2023-03-28T06:48:45.605Z,70.22
2023-03-28T06:51:48.348Z,69.01
2023-03-28T06:54:51.259Z,67.30
2023-03-28T06:57:53.847Z,67.42
2023-03-28T07:00:59.874Z,65.10
2023-03-28T07:04:03.124Z,61.25
2023-03-28T07:07:06.032Z,54.05
2023-03-28T07:10:10.064Z,51.77
2023-03-28T07:13:14.382Z,45.84
2023-03-28T07:16:18.649Z,42.15
2023-03-28T07:19:22.225Z,41.70
2023-03-28T07:22:24.966Z,36.66
2023-03-28T07:25:27.688Z,36.01
2023-03-28T07:28:30.342Z,34.26
2023-03-28T07:31:34.625Z,35.85
2023-03-28T07:34:37.407Z,37.12
2023-03-28T07:37:40.085Z,40.54
2023-03-28T07:40:42.679Z,42.76
2023-03-28T07:43:45.800Z,44.38
2023-03-28T07:46:51.204Z,46.50
2023-03-28T07:49:54.312Z,49.16
2023-03-28T07:52:57.395Z,50.70
2023-03-28T07:56:00.355Z,53.40
2023-03-28T07:59:04.334Z,54.55
2023-03-28T08:02:08.447Z,56.13
2023-03-28T08:05:11.329Z,57.84
2023-03-28T08:08:14.011Z,57.35
2023-03-28T08:11:16.646Z,59.05
2023-03-28T08:14:19.500Z,59.00
2023-03-28T08:17:24.049Z,57.71
2023-03-28T08:20:26.940Z,58.72
2023-03-28T08:23:29.895Z,58.71
2023-03-28T08:26:32.538Z,58.71
2023-03-28T08:29:35.520Z,55.48
2023-03-28T08:32:39.570Z,53.95
2023-03-28T08:35:42.320Z,54.41
2023-03-28T08:38:46.551Z,54.08
2023-03-28T08:42:06.046Z,50.89
2023-03-28T08:45:31.389Z,51.07
2023-03-28T08:48:41.083Z,49.47
2023-03-28T08:51:46.744Z,51.30
2023-03-28T08:54:54.756Z,49.19
2023-03-28T08:57:58.919Z,47.03
2023-03-28T09:01:03.427Z,48.30
2023-03-28T09:04:07.806Z,46.70
2023-03-28T09:07:24.189Z,49.50
2023-03-28T09:10:32.778Z,50.71
2023-03-28T09:13:43.766Z,50.65
2023-03-28T09:17:00.053Z,48.57
2023-03-28T09:20:12.332Z,46.50
2023-03-28T09:23:42.689Z,47.05
2023-03-28T09:26:49.059Z,47.63
2023-03-28T09:29:55.939Z,46.44
2023-03-28T09:33:01.575Z,47.81
2023-03-28T09:36:13.625Z,45.05
2023-03-28T09:39:23.175Z,46.40
2023-03-28T09:42:34.111Z,45.50
2023-03-28T09:45:54.169Z,42.38
2023-03-28T09:48:57.500Z,45.38
2023-03-28T09:52:01.521Z,43.37
2023-03-28T09:55:04.569Z,43.27
2023-03-28T09:58:09.593Z,43.66
2023-03-28T10:01:26.034Z,43.92
2023-03-28T10:04:37.555Z,42.36
2023-03-28T10:07:45.046Z,42.56
2023-03-28T10:10:56.381Z,42.57
2023-03-28T10:13:59.053Z,41.64
2023-03-28T10:17:04.329Z,39.75
2023-03-28T10:20:16.705Z,40.10
2023-03-28T10:23:23.182Z,40.86
2023-03-28T10:26:28.509Z,37.66
2023-03-28T10:29:31.229Z,37.66
2023-03-28T10:32:34.150Z,36.63
2023-03-28T10:35:41.376Z,38.59
2023-03-28T10:38:48.782Z,35.90
2023-03-28T10:41:55.636Z,38.65
2023-03-28T10:45:02.284Z,36.69
2023-03-28T10:48:12.456Z,38.44
2023-03-28T10:51:21.569Z,35.58
2023-03-28T10:54:42.889Z,34.35
2023-03-28T10:57:53.836Z,35.45
2023-03-28T11:01:03.890Z,39.80
2023-03-28T11:04:22.927Z,38.71
2023-03-28T11:07:32.025Z,37.64
2023-03-28T11:10:43.093Z,37.16
2023-03-28T11:13:54.738Z,34.83
2023-03-28T11:17:08.021Z,34.07
2023-03-28T11:20:44.935Z,34.89
2023-03-28T11:23:50.745Z,33.56
2023-03-28T11:27:12.541Z,35.94
2023-03-28T11:30:22.027Z,34.37
2023-03-28T11:33:30.395Z,35.04
2023-03-28T11:36:36.533Z,33.53
2023-03-28T11:39:44.542Z,35.38
2023-03-28T11:42:52.246Z,34.30
2023-03-28T11:46:00.410Z,36.87
2023-03-28T11:49:15.300Z,38.94
2023-03-28T11:52:24.091Z,38.32
2023-03-28T11:55:30.830Z,37.80
2023-03-28T11:58:38.700Z,34.05
2023-03-28T12:01:48.610Z,33.28
2023-03-28T12:04:58.598Z,33.49
2023-03-28T12:08:08.403Z,34.50
2023-03-28T12:11:17.643Z,33.16
2023-03-28T12:14:36.259Z,32.38
2023-03-28T12:17:45.321Z,33.13
2023-03-28T12:20:56.530Z,34.90
2023-03-28T12:24:06.451Z,33.93
2023-03-28T12:27:22.453Z,30.96
2023-03-28T12:30:34.336Z,31.74
2023-03-28T12:33:47.027Z,32.14
2023-03-28T12:36:57.849Z,32.55
2023-03-28T12:40:12.931Z,33.26
2023-03-28T12:43:21.240Z,34.70
2023-03-28T12:46:30.009Z,36.00
2023-03-28T12:49:40.485Z,34.06
2023-03-28T12:52:47.316Z,34.58
2023-03-28T12:55:53.295Z,32.97
2023-03-28T12:58:57.562Z,31.53
2023-03-28T13:02:10.847Z,32.82
2023-03-28T13:05:22.707Z,32.50
2023-03-28T13:08:32.923Z,32.96
2023-03-28T13:11:45.282Z,33.89
2023-03-28T13:15:01.106Z,35.29
2023-03-28T13:18:31.754Z,33.85
2023-03-28T13:21:48.092Z,36.42
2023-03-28T13:24:52.372Z,31.97
2023-03-28T13:27:58.273Z,30.40
2023-03-28T13:31:15.082Z,33.01
2023-03-28T13:34:29.243Z,32.34
2023-03-28T13:37:47.965Z,30.96
2023-03-28T13:40:55.016Z,31.88
2023-03-28T13:44:02.893Z,33.38
2023-03-28T13:47:08.122Z,34.28
2023-03-28T13:50:20.910Z,33.83
2023-03-28T13:53:28.235Z,32.93
2023-03-28T13:56:43.708Z,31.93
2023-03-28T13:59:54.428Z,31.75
2023-03-28T14:03:04.051Z,32.19
2023-03-28T14:06:21.945Z,33.41
2023-03-28T14:09:34.923Z,31.29
2023-03-28T14:12:40.376Z,32.34
2023-03-28T14:15:45.707Z,32.71
2023-03-28T14:18:52.746Z,31.92
2023-03-28T14:21:58.111Z,30.62
2023-03-28T14:25:04.600Z,31.33
2023-03-28T14:28:09.991Z,30.63
2023-03-28T14:31:16.082Z,31.82
2023-03-28T14:34:25.609Z,31.77
2023-03-28T14:37:31.410Z,30.64
2023-03-28T14:40:37.540Z,31.86
2023-03-28T14:43:41.709Z,32.35
2023-03-28T14:46:49.705Z,32.94
2023-03-28T14:49:55.044Z,32.58
2023-03-28T14:53:06.329Z,31.90
2023-03-28T14:56:14.263Z,31.51
2023-03-28T14:59:20.320Z,29.46
2023-03-28T15:02:27.920Z,28.89
2023-03-28T15:05:32.828Z,27.92
2023-03-28T15:08:40.133Z,29.12
2023-03-28T15:11:45.116Z,29.78
2023-03-28T15:14:50.153Z,29.47
2023-03-28T15:17:56.253Z,28.20
2023-03-28T15:21:03.765Z,27.60
2023-03-28T15:24:13.986Z,27.99
2023-03-28T15:27:27.401Z,27.99
2023-03-28T15:30:35.716Z,29.24
2023-03-28T15:33:40.306Z,29.61
2023-03-28T15:36:50.671Z,29.08
2023-03-28T15:40:12.455Z,28.42
2023-03-28T15:43:39.154Z,27.20
2023-03-28T15:46:43.270Z,27.93
2023-03-28T15:49:47.843Z,29.63
2023-03-28T15:52:58.298Z,29.24
2023-03-28T15:56:10.545Z,29.49
2023-03-28T15:59:23.406Z,28.18
2023-03-28T16:02:34.151Z,28.53
2023-03-28T16:05:38.975Z,28.02
2023-03-28T16:08:44.787Z,31.31
2023-03-28T16:11:54.889Z,31.27
2023-03-28T16:14:59.436Z,32.06
2023-03-28T16:18:03.832Z,31.89
2023-03-28T16:21:10.241Z,32.11
2023-03-28T16:24:14.573Z,31.08
2023-03-28T16:27:21.181Z,32.88
2023-03-28T16:30:30.089Z,31.69
2023-03-28T16:33:34.324Z,32.92
2023-03-28T16:36:38.546Z,32.72
2023-03-28T16:39:42.696Z,32.12
2023-03-28T16:42:48.491Z,33.79
2023-03-28T16:45:52.657Z,33.48
2023-03-28T16:48:57.058Z,33.12
2023-03-28T16:52:01.174Z,33.70
2023-03-28T16:55:05.307Z,34.73
2023-03-28T16:58:11.455Z,34.57
2023-03-28T17:01:19.478Z,34.67
2023-03-28T17:04:24.168Z,34.42
2023-03-28T17:07:28.856Z,36.55
2023-03-28T17:10:33.103Z,35.04
2023-03-28T17:13:39.026Z,35.34
2023-03-28T17:16:45.320Z,36.46
2023-03-28T17:19:49.594Z,36.58
2023-03-28T17:22:54.489Z,36.56
2023-03-28T17:25:58.676Z,37.27
2023-03-28T17:29:07.346Z,38.63
2023-03-28T17:32:11.892Z,41.17
2023-03-28T17:35:17.863Z,42.94
2023-03-28T17:38:22.122Z,44.29
2023-03-28T17:41:28.062Z,45.08
2023-03-28T17:44:33.504Z,45.44
2023-03-28T17:47:39.205Z,46.58
2023-03-28T17:50:43.954Z,47.72
2023-03-28T17:53:49.232Z,47.63
2023-03-28T17:56:54.304Z,47.66
2023-03-28T18:00:01.182Z,48.42
2023-03-28T18:03:05.236Z,48.87
2023-03-28T18:06:09.433Z,44.17
2023-03-28T18:09:13.011Z,43.58
2023-03-28T18:12:17.148Z,43.17
2023-03-28T18:15:22.820Z,43.19
2023-03-28T18:18:26.780Z,43.38
2023-03-28T18:21:30.863Z,42.29
2023-03-28T18:24:35.438Z,42.60
2023-03-28T18:27:39.714Z,42.86
2023-03-28T18:30:45.804Z,42.51
2023-03-28T18:33:49.727Z,42.53
2023-03-28T18:36:55.840Z,42.65
2023-03-28T18:39:59.567Z,42.38
2023-03-28T18:43:03.938Z,42.25
2023-03-28T18:46:09.443Z,42.00
2023-03-28T18:49:14.322Z,42.42
2023-03-28T18:52:18.157Z,41.99
2023-03-28T18:55:22.379Z,42.21
2023-03-28T18:58:26.413Z,42.50
2023-03-28T19:01:33.091Z,41.92
2023-03-28T19:04:38.425Z,42.22
2023-03-28T19:07:42.277Z,42.40
2023-03-28T19:10:47.406Z,42.02
2023-03-28T19:13:51.480Z,42.00
2023-03-28T19:16:57.083Z,42.61
2023-03-28T19:20:02.179Z,42.84
2023-03-28T19:23:06.107Z,42.20
2023-03-28T19:26:12.374Z,42.64
2023-03-28T19:29:16.449Z,42.67
2023-03-28T19:32:22.043Z,43.15
2023-03-28T19:35:26.425Z,43.00
2023-03-28T19:38:31.659Z,42.46
2023-03-28T19:41:35.538Z,42.93
2023-03-28T19:44:39.701Z,42.59
2023-03-28T19:47:44.584Z,44.73
2023-03-28T19:50:50.362Z,46.36
2023-03-28T19:53:54.897Z,48.24
2023-03-28T19:56:59.000Z,49.91
2023-03-28T20:00:02.927Z,49.15
2023-03-28T20:03:08.236Z,46.47
2023-03-28T20:06:14.482Z,44.76
2023-03-28T20:09:18.511Z,44.15
2023-03-28T20:12:22.660Z,43.55
2023-03-28T20:15:26.617Z,43.79
2023-03-28T20:18:32.926Z,43.46
2023-03-28T20:21:36.753Z,43.67
2023-03-28T20:24:41.170Z,42.60
2023-03-28T20:27:44.981Z,41.37
2023-03-28T20:30:49.754Z,42.83
2023-03-28T20:33:55.443Z,43.52
2023-03-28T20:36:59.485Z,44.21
2023-03-28T20:40:10.978Z,42.58
2023-03-28T20:43:20.091Z,42.19
2023-03-28T20:46:24.013Z,45.75
2023-03-28T20:49:29.415Z,47.65
2023-03-28T20:52:37.491Z,50.78
2023-03-28T20:55:40.631Z,50.98
2023-03-28T20:58:44.442Z,50.10
2023-03-28T21:01:48.190Z,46.50
2023-03-28T21:04:54.014Z,48.25
2023-03-28T21:07:58.395Z,47.51
2023-03-28T21:11:02.324Z,46.57
2023-03-28T21:14:07.558Z,48.92
2023-03-28T21:17:22.088Z,48.57
2023-03-28T21:20:27.500Z,48.43
2023-03-28T21:23:31.140Z,48.83
2023-03-28T21:26:34.761Z,48.78
2023-03-28T21:29:39.587Z,49.13
2023-03-28T21:32:43.661Z,49.93
2023-03-28T21:35:51.907Z,50.01
2023-03-28T21:38:56.184Z,50.77
2023-03-28T21:42:00.227Z,51.69
2023-03-28T21:45:03.696Z,51.04
2023-03-28T21:48:07.603Z,51.75
2023-03-28T21:51:13.200Z,52.35
2023-03-28T21:54:17.039Z,51.83
2023-03-28T21:57:20.502Z,51.20
2023-03-28T22:00:24.110Z,51.66
2023-03-28T22:03:28.406Z,51.95
2023-03-28T22:06:33.212Z,52.93
2023-03-28T22:09:39.251Z,54.16
2023-03-28T22:12:44.787Z,56.72
2023-03-28T22:15:48.004Z,56.01
2023-03-28T22:18:51.034Z,54.46
2023-03-28T22:21:55.321Z,56.27
2023-03-28T22:25:00.595Z,57.91
2023-03-28T22:28:04.382Z,57.11
2023-03-28T22:31:07.949Z,54.97
2023-03-28T22:34:11.011Z,54.23
2023-03-28T22:37:17.302Z,53.44
2023-03-28T22:40:21.275Z,49.70
2023-03-28T22:43:25.390Z,50.25
2023-03-28T22:46:28.602Z,49.45
2023-03-28T22:49:34.239Z,50.10
2023-03-28T22:52:39.011Z,51.71
2023-03-28T22:55:42.854Z,53.83
2023-03-28T22:58:45.871Z,56.26
2023-03-28T23:01:49.572Z,58.44
2023-03-28T23:04:54.269Z,59.15
2023-03-28T23:08:00.019Z,60.11
2023-03-28T23:11:03.406Z,60.50
2023-03-28T23:14:06.668Z,60.60
2023-03-28T23:17:11.145Z,61.01
2023-03-28T23:20:15.944Z,63.38
2023-03-28T23:23:20.179Z,64.15
2023-03-28T23:26:23.330Z,65.40
2023-03-28T23:29:26.678Z,66.66
2023-03-28T23:32:29.614Z,68.59
2023-03-28T23:35:32.652Z,69.22
2023-03-28T23:38:37.097Z,68.92
2023-03-28T23:41:41.560Z,69.45
2023-03-28T23:44:44.728Z,71.66
2023-03-28T23:47:47.820Z,72.31
2023-03-28T23:50:50.846Z,72.04
2023-03-28T23:53:55.472Z,72.78
2023-03-28T23:56:59.065Z,73.93
